Time;durP1;ratioP1;P1;durP2;ratioP2;P2;SDS_P1;SDS_P2;PMS_P1;PMS_P2;Temp;Humidity;BMP_temperature;BMP_pressure;BME280_temperature;BME280_humidity;BME280_pressure;Samples;Min_cycle;Max_cycle;Signal;HPM_P1;HPM_P2
2022/06/30 00:02:09;;;;;;;3.40;3.10;;;;;;;18.57;70.59;95345.97;4995802;28;20175;-81
2022/06/30 00:04:34;;;;;;;5.25;3.10;;;;;;;18.54;70.40;95346.34;5012538;28;20558;-81
2022/06/30 00:07:00;;;;;;;3.35;2.78;;;;;;;18.57;69.90;95346.78;5006811;28;20199;-80
2022/06/30 00:09:25;;;;;;;6.75;3.03;;;;;;;18.59;69.71;95344.75;4983627;28;20207;-80
2022/06/30 00:11:50;;;;;;;5.93;3.10;;;;;;;18.59;69.82;95343.94;5006038;28;20258;-80
2022/06/30 00:14:16;;;;;;;2.70;2.50;;;;;;;18.56;69.90;95342.53;5006219;28;20608;-81
2022/06/30 00:16:41;;;;;;;3.58;2.85;;;;;;;18.54;69.62;95338.44;5012482;28;20218;-81
2022/06/30 00:19:06;;;;;;;6.20;3.53;;;;;;;18.50;70.23;95340.69;5012319;28;20230;-80
2022/06/30 00:21:32;;;;;;;6.50;3.15;;;;;;;18.43;70.39;95331.97;5011286;28;20552;-80
2022/06/30 00:23:57;;;;;;;5.07;2.80;;;;;;;18.39;70.71;95336.03;5004334;28;20291;-80
2022/06/30 00:26:22;;;;;;;4.00;3.13;;;;;;;18.37;70.63;95336.22;5001830;28;20187;-80
2022/06/30 00:28:47;;;;;;;4.22;2.97;;;;;;;18.33;70.70;95340.28;5003091;28;20216;-80
2022/06/30 00:31:13;;;;;;;7.38;3.28;;;;;;;18.42;69.95;95332.19;5011170;28;20689;-80
2022/06/30 00:33:38;;;;;;;6.55;3.60;;;;;;;18.37;70.80;95344.09;5005980;28;20194;-80
2022/06/30 00:36:03;;;;;;;6.18;3.00;;;;;;;18.23;71.64;95336.41;4994378;28;20655;-80
2022/06/30 00:38:29;;;;;;;6.38;3.20;;;;;;;18.12;72.43;95335.19;5011615;28;20191;-80
2022/06/30 00:40:54;;;;;;;6.80;3.10;;;;;;;18.03;73.22;95334.56;4994459;28;20214;-80
2022/06/30 00:43:19;;;;;;;4.05;2.95;;;;;;;17.95;73.38;95332.13;5010906;28;20238;-80
2022/06/30 00:45:47;;;;;;;3.33;2.97;;;;;;;17.83;73.96;95331.88;4994317;28;20309;-80
2022/06/30 00:48:14;;;;;;;4.18;3.45;;;;;;;17.85;73.24;95328.25;5011429;28;20270;-80
2022/06/30 00:50:40;;;;;;;5.30;3.50;;;;;;;17.83;72.97;95326.59;4994515;28;20578;-80
2022/06/30 00:53:07;;;;;;;4.97;3.00;;;;;;;17.81;73.19;95326.00;5011151;28;20186;-80
2022/06/30 00:55:33;;;;;;;3.63;3.13;;;;;;;17.88;72.54;95322.59;4994346;28;20206;-80
2022/06/30 00:58:03;;;;;;;5.47;3.30;;;;;;;17.76;73.67;95317.13;5011891;28;20268;-80
2022/06/30 01:00:32;;;;;;;3.65;3.10;;;;;;;17.71;73.88;95315.06;4992211;28;20679;-81
2022/06/30 01:02:58;;;;;;;3.55;2.85;;;;;;;17.68;73.86;95317.25;5010468;28;20249;-80
2022/06/30 01:05:24;;;;;;;4.18;3.22;;;;;;;17.63;73.96;95312.59;5027041;28;20677;-81
2022/06/30 01:07:50;;;;;;;4.10;2.90;;;;;;;17.56;74.08;95309.13;5010570;28;20187;-81
2022/06/30 01:12:59;;;;;;;3.55;2.92;;;;;;;17.48;74.71;95304.03;5011237;28;20209;-80
2022/06/30 01:15:25;;;;;;;5.50;3.08;;;;;;;17.50;73.59;95309.91;5010617;28;20661;-80
2022/06/30 01:17:50;;;;;;;3.17;2.88;;;;;;;17.55;73.12;95310.13;5011175;28;20195;-80
2022/06/30 01:20:17;;;;;;;4.35;3.55;;;;;;;17.62;72.88;95308.34;5011440;28;20211;-80
2022/06/30 01:22:42;;;;;;;3.70;3.35;;;;;;;17.56;73.49;95317.00;4995190;28;20329;-80
2022/06/30 01:25:09;;;;;;;4.60;3.33;;;;;;;17.59;73.64;95311.38;5012449;28;20194;-80
2022/06/30 01:27:35;;;;;;;5.28;3.10;;;;;;;17.53;74.27;95312.16;5012888;28;20192;-80
2022/06/30 01:30:01;;;;;;;3.88;3.05;;;;;;;17.41;75.04;95308.47;4994807;28;20706;-80
2022/06/30 01:32:28;;;;;;;5.82;3.58;;;;;;;17.36;74.64;95310.88;4995234;28;20194;-80
2022/06/30 01:34:54;;;;;;;6.40;3.42;;;;;;;17.32;75.04;95310.44;5010825;28;20587;-80
2022/06/30 01:37:20;;;;;;;3.35;3.03;;;;;;;17.29;75.03;95305.56;5011202;28;20194;-80
2022/06/30 01:39:45;;;;;;;4.18;3.13;;;;;;;17.23;75.34;95307.19;5010984;28;20226;-80
2022/06/30 01:42:10;;;;;;;5.68;3.50;;;;;;;17.20;75.16;95310.16;5010915;28;20187;-81
2022/06/30 01:44:36;;;;;;;3.53;3.13;;;;;;;17.22;74.95;95309.97;5010336;28;20623;-81
2022/06/30 01:47:02;;;;;;;4.80;3.00;;;;;;;17.17;74.76;95302.69;5010346;28;20183;-81
2022/06/30 01:49:27;;;;;;;3.60;3.30;;;;;;;17.21;74.36;95298.66;4994907;28;20213;-81
2022/06/30 01:51:53;;;;;;;4.78;3.38;;;;;;;17.25;74.16;95299.91;5011235;28;20183;-81
2022/06/30 01:54:18;;;;;;;4.75;3.20;;;;;;;17.23;74.51;95299.31;4994228;28;20218;-81
2022/06/30 01:56:43;;;;;;;3.58;3.28;;;;;;;17.19;74.51;95294.63;5010946;28;20183;-81
2022/06/30 01:59:09;;;;;;;4.70;3.63;;;;;;;17.13;74.91;95288.34;4994462;28;20519;-82
2022/06/30 02:01:35;;;;;;;6.43;2.92;;;;;;;17.08;75.42;95288.13;5012218;28;20551;-81
2022/06/30 02:04:46;;;;;;;3.60;3.15;;;;;;;17.07;75.36;95291.75;5027138;28;20183;-81
2022/06/30 02:06:46;;;;;;;3.30;2.92;;;;;;;17.02;75.57;95298.56;5010960;28;20575;-81
2022/06/30 02:09:11;;;;;;;3.70;3.30;;;;;;;17.02;75.58;95291.50;5027500;28;20191;-81
2022/06/30 02:11:37;;;;;;;3.75;3.45;;;;;;;17.02;75.48;95290.69;5010969;28;20207;-81
2022/06/30 02:14:02;;;;;;;3.90;3.08;;;;;;;17.00;74.97;95285.66;5011977;28;20179;-80
2022/06/30 02:16:27;;;;;;;3.30;3.03;;;;;;;16.98;74.81;95283.22;5010825;28;20241;-81
2022/06/30 02:18:53;;;;;;;3.30;2.97;;;;;;;16.96;74.94;95281.78;4997446;28;20185;-81
2022/06/30 02:21:18;;;;;;;5.47;2.95;;;;;;;16.99;74.59;95284.03;5015299;28;20203;-81
2022/06/30 02:23:44;;;;;;;4.85;3.15;;;;;;;17.01;74.01;95283.84;5016174;28;20183;-81
2022/06/30 02:26:10;;;;;;;4.60;3.00;;;;;;;17.05;73.71;95288.53;5015178;28;20190;-81
2022/06/30 02:28:35;;;;;;;5.43;3.08;;;;;;;17.10;73.30;95278.25;5014869;28;20663;-81
2022/06/30 02:31:00;;;;;;;5.68;3.80;;;;;;;17.19;72.12;95274.44;4998302;28;20214;-80
2022/06/30 02:33:26;;;;;;;4.93;3.83;;;;;;;17.26;72.01;95279.72;5014754;28;20647;-80
2022/06/30 02:35:51;;;;;;;3.63;2.85;;;;;;;17.34;71.40;95281.38;5013916;28;20290;-80
2022/06/30 02:38:16;;;;;;;2.90;2.70;;;;;;;17.39;71.57;95285.03;5014950;28;20621;-80
2022/06/30 02:40:41;;;;;;;5.40;3.13;;;;;;;17.37;71.15;95280.97;5014846;28;20550;-81
2022/06/30 02:43:07;;;;;;;4.25;2.90;;;;;;;17.25;71.90;95280.75;4999044;28;20182;-81
2022/06/30 02:45:32;;;;;;;2.97;2.70;;;;;;;17.23;71.83;95278.31;5013365;28;20191;-81
2022/06/30 02:47:58;;;;;;;4.75;2.65;;;;;;;17.26;71.72;95285.78;4998235;28;20190;-81
2022/06/30 02:50:24;;;;;;;3.60;2.95;;;;;;;17.31;71.09;95277.31;5014447;28;20685;-81
2022/06/30 02:52:49;;;;;;;5.65;3.17;;;;;;;17.25;71.64;95273.66;4997832;28;20187;-81
2022/06/30 02:55:15;;;;;;;2.97;2.78;;;;;;;17.30;71.14;95280.13;5014291;28;20631;-81
2022/06/30 02:57:40;;;;;;;3.20;2.90;;;;;;;17.26;71.54;95275.28;5013791;28;20237;-81
2022/06/30 03:00:08;;;;;;;4.25;3.15;;;;;;;17.27;71.94;95281.34;5013908;28;20313;-81
2022/06/30 03:02:33;;;;;;;3.60;3.17;;;;;;;17.18;72.18;95269.41;5014545;28;20421;-81
2022/06/30 03:04:59;;;;;;;3.38;3.00;;;;;;;17.17;72.27;95279.09;5015633;28;20536;-81
2022/06/30 03:07:24;;;;;;;3.17;2.90;;;;;;;17.12;73.04;95273.59;5014605;28;20535;-81
2022/06/30 03:09:49;;;;;;;3.78;3.47;;;;;;;17.08;73.41;95279.44;5013755;28;20720;-81
2022/06/30 03:12:14;;;;;;;3.88;3.30;;;;;;;16.99;74.00;95278.78;5012772;28;20647;-81
2022/06/30 03:14:40;;;;;;;3.17;2.97;;;;;;;16.98;74.25;95282.41;5013024;28;20180;-81
2022/06/30 03:17:05;;;;;;;4.50;3.90;;;;;;;16.90;75.15;95280.75;5014356;28;20191;-82
2022/06/30 03:19:30;;;;;;;5.47;3.50;;;;;;;16.90;75.04;95277.31;4997243;28;20225;-81
2022/06/30 03:21:56;;;;;;;3.35;3.05;;;;;;;16.86;75.29;95274.25;5013297;28;20183;-81
2022/06/30 03:24:21;;;;;;;3.45;3.15;;;;;;;16.87;76.13;95275.06;5013059;28;20191;-81
2022/06/30 03:26:47;;;;;;;4.88;3.13;;;;;;;16.90;76.20;95269.47;5014028;28;20218;-81
2022/06/30 03:29:12;;;;;;;3.75;3.33;;;;;;;16.93;76.78;95279.56;5012519;28;20195;-81
2022/06/30 03:31:37;;;;;;;4.00;3.60;;;;;;;16.97;76.38;95268.50;4997015;28;20776;-81
2022/06/30 03:34:03;;;;;;;3.22;2.92;;;;;;;17.05;76.42;95271.94;4996721;28;20183;-81
2022/06/30 03:36:28;;;;;;;5.47;3.72;;;;;;;17.07;76.38;95273.38;5013770;28;20211;-82
2022/06/30 03:38:53;;;;;;;3.10;2.80;;;;;;;17.14;76.48;95276.88;4997656;28;20180;-82
2022/06/30 03:41:19;;;;;;;4.55;3.30;;;;;;;17.18;76.71;95272.84;5013386;28;20547;-81
2022/06/30 03:43:44;;;;;;;6.07;3.40;;;;;;;17.32;76.11;95280.78;4996346;28;20191;-82
2022/06/30 03:46:09;;;;;;;4.25;3.20;;;;;;;17.40;75.55;95286.63;5013169;28;20651;-82
2022/06/30 03:48:35;;;;;;;5.28;3.40;;;;;;;17.49;74.97;95271.53;5014888;28;20245;-82
2022/06/30 03:51:02;;;;;;;4.63;3.40;;;;;;;17.60;74.56;95278.03;4996640;28;20202;-81
2022/06/30 03:53:27;;;;;;;4.03;3.50;;;;;;;17.75;73.40;95276.88;5013436;28;20183;-82
2022/06/30 03:55:53;;;;;;;5.57;3.42;;;;;;;18.55;71.09;95274.34;4990827;28;20207;-82
2022/06/30 03:58:18;;;;;;;5.55;3.15;;;;;;;20.03;64.86;95278.75;4999263;28;20195;-82
2022/06/30 04:00:43;;;;;;;4.97;2.50;;;;;;;21.67;59.80;95274.00;5011592;28;20683;-82
2022/06/30 04:03:09;;;;;;;3.92;2.80;;;;;;;22.46;54.44;95277.38;5011954;28;20219;-82
2022/06/30 04:05:34;;;;;;;3.95;2.58;;;;;;;23.53;50.68;95277.09;5012091;28;20222;-81
2022/06/30 04:07:59;;;;;;;3.40;2.58;;;;;;;23.93;49.08;95283.19;4996095;28;20679;-80
2022/06/30 04:10:25;;;;;;;4.97;2.33;;;;;;;23.56;48.22;95276.63;5013015;28;20813;-80
2022/06/30 04:12:50;;;;;;;3.15;2.30;;;;;;;23.87;47.81;95278.06;5012067;28;20218;-81
2022/06/30 04:15:15;;;;;;;3.95;2.45;;;;;;;24.69;45.46;95272.31;5012005;28;20192;-82
2022/06/30 04:17:41;;;;;;;3.13;2.60;;;;;;;25.34;43.89;95276.97;4996054;28;20190;-82
2022/06/30 04:20:15;;;;;;;3.50;2.50;;;;;;;26.31;41.66;95278.06;4995763;28;20222;-81
2022/06/30 04:22:42;;;;;;;4.50;2.50;;;;;;;27.55;38.40;95276.81;5027308;28;20202;-81
2022/06/30 04:25:08;;;;;;;3.85;2.40;;;;;;;28.20;37.97;95280.78;5011994;28;20243;-81
2022/06/30 04:27:34;;;;;;;4.30;2.35;;;;;;;28.50;36.70;95285.38;4996080;28;20187;-81
2022/06/30 04:29:59;;;;;;;5.20;2.00;;;;;;;28.02;37.75;95281.28;5013553;28;20285;-81
2022/06/30 04:32:40;;;;;;;3.97;2.10;;;;;;;29.00;36.35;95279.25;5011731;28;20195;-80
2022/06/30 04:35:07;;;;;;;4.90;2.50;;;;;;;29.03;36.41;95276.03;5011422;28;20183;-81
2022/06/30 04:37:33;;;;;;;3.38;2.30;;;;;;;29.02;35.91;95282.44;5011750;28;20600;-81
2022/06/30 04:42:42;;;;;;;2.78;2.10;;;;;;;29.26;35.03;95289.88;5013056;28;20198;-81
2022/06/30 04:45:08;;;;;;;5.63;2.47;;;;;;;29.79;35.00;95292.94;5011734;28;20667;-83
2022/06/30 04:47:35;;;;;;;3.38;2.10;;;;;;;30.85;33.26;95285.34;5012094;28;20183;-83
2022/06/30 04:50:01;;;;;;;6.85;2.60;;;;;;;31.26;31.55;95275.03;5011537;28;20218;-82
2022/06/30 04:52:27;;;;;;;3.47;2.20;;;;;;;31.63;31.57;95284.28;5011593;28;20650;-80
2022/06/30 04:54:52;;;;;;;3.40;2.28;;;;;;;31.31;32.38;95282.25;5010489;28;20198;-80
2022/06/30 04:57:17;;;;;;;3.88;2.22;;;;;;;31.07;32.42;95285.66;5015190;28;20183;-82
2022/06/30 04:59:43;;;;;;;3.63;2.22;;;;;;;30.97;32.72;95280.41;5034670;28;20222;-83
2022/06/30 05:02:08;;;;;;;4.50;2.33;;;;;;;31.32;32.49;95279.28;5020826;28;20180;-83
2022/06/30 05:04:34;;;;;;;3.58;2.20;;;;;;;31.12;32.59;95282.94;5031452;28;20198;-83
2022/06/30 05:06:59;;;;;;;2.72;2.50;;;;;;;31.49;31.78;95284.19;5026300;28;20170;-83
2022/06/30 05:09:24;;;;;;;3.08;2.20;;;;;;;31.39;31.89;95279.75;5036702;28;20209;-83
2022/06/30 05:11:50;;;;;;;5.80;2.20;;;;;;;32.06;30.44;95285.91;5037048;28;20238;-83
2022/06/30 05:14:16;;;;;;;6.95;2.65;;;;;;;33.43;28.42;95284.84;5036543;28;20187;-83
2022/06/30 05:16:41;;;;;;;4.20;2.42;;;;;;;32.93;29.39;95280.06;5034497;28;20267;-85
2022/06/30 05:19:06;;;;;;;4.32;2.42;;;;;;;33.47;28.53;95288.53;5025615;28;20720;-82
2022/06/30 05:21:31;;;;;;;5.00;2.42;;;;;;;33.20;28.83;95290.06;5013106;28;20215;-81
2022/06/30 05:26:41;;;;;;;5.45;2.70;;;;;;;33.58;29.01;95281.88;5012436;28;20190;-82
2022/06/30 05:29:06;;;;;;;6.53;2.60;;;;;;;33.73;28.42;95273.47;5013386;28;20187;-82
2022/06/30 05:31:31;;;;;;;4.78;2.83;;;;;;;33.39;28.83;95273.88;4995684;28;20291;-81
2022/06/30 05:33:57;;;;;;;3.58;2.40;;;;;;;34.19;27.65;95271.72;5012850;28;20183;-82
2022/06/30 05:36:22;;;;;;;3.42;2.20;;;;;;;34.33;27.98;95273.28;5015510;28;20194;-81
2022/06/30 05:38:47;;;;;;;3.95;2.00;;;;;;;35.79;25.28;95276.41;5013881;28;20244;-81
2022/06/30 05:41:12;;;;;;;4.55;2.53;;;;;;;34.64;26.65;95269.91;5012177;28;20210;-82
2022/06/30 05:43:38;;;;;;;5.25;2.30;;;;;;;34.20;28.03;95273.34;5011503;28;20191;-83
2022/06/30 05:46:03;;;;;;;3.65;2.25;;;;;;;35.09;26.87;95259.91;5013155;28;20262;-81
2022/06/30 05:48:28;;;;;;;6.78;2.85;;;;;;;37.00;23.82;95271.06;5011555;28;20195;-81
2022/06/30 05:50:54;;;;;;;5.00;2.25;;;;;;;35.29;26.12;95266.66;4994482;28;20207;-82
2022/06/30 05:53:19;;;;;;;3.47;2.22;;;;;;;35.91;25.36;95274.69;5010156;28;20186;-82
2022/06/30 05:55:44;;;;;;;3.53;1.92;;;;;;;36.56;24.28;95275.72;4994104;28;20189;-82
2022/06/30 05:58:11;;;;;;;4.50;2.13;;;;;;;36.89;23.71;95272.53;5010876;28;20178;-83
2022/06/30 06:00:36;;;;;;;4.68;2.00;;;;;;;39.03;21.13;95273.53;5010770;28;20202;-82
2022/06/30 06:03:02;;;;;;;6.90;2.45;;;;;;;35.45;26.30;95264.38;5009365;28;20178;-83
2022/06/30 06:05:28;;;;;;;2.90;2.22;;;;;;;36.69;23.80;95268.56;5010359;28;20210;-84
2022/06/30 06:07:53;;;;;;;3.75;2.20;;;;;;;36.42;23.98;95266.97;4994447;28;20272;-83
2022/06/30 06:10:18;;;;;;;4.88;2.47;;;;;;;36.77;23.88;95271.25;5010786;28;20214;-83
2022/06/30 06:12:44;;;;;;;6.10;2.00;;;;;;;35.41;25.60;95258.78;5009565;28;20191;-82
2022/06/30 06:15:14;;;;;;;3.75;2.10;;;;;;;36.78;23.96;95262.00;4993844;28;20175;-84
2022/06/30 06:17:44;;;;;;;6.53;2.45;;;;;;;36.62;23.90;95268.25;5010067;28;20282;-83
2022/06/30 06:20:10;;;;;;;2.78;2.10;;;;;;;35.43;25.97;95272.00;5009615;28;20897;-82
2022/06/30 06:22:36;;;;;;;2.38;2.10;;;;;;;36.73;23.79;95273.00;5009604;28;20191;-83
2022/06/30 06:25:01;;;;;;;4.50;2.05;;;;;;;38.62;21.19;95272.47;5009308;28;20271;-81
2022/06/30 06:27:26;;;;;;;5.53;2.10;;;;;;;37.14;23.50;95277.09;4994048;28;20241;-82
2022/06/30 06:29:52;;;;;;;5.18;2.72;;;;;;;35.75;24.42;95277.00;4993483;28;20683;-84
2022/06/30 06:32:17;;;;;;;2.92;2.65;;;;;;;35.48;25.70;95269.94;5011167;28;20238;-82
2022/06/30 06:34:42;;;;;;;2.63;2.08;;;;;;;36.86;23.59;95280.19;5009416;28;20194;-83
2022/06/30 06:37:07;;;;;;;2.97;2.28;;;;;;;37.43;22.78;95279.06;5012874;28;20678;-83
2022/06/30 06:39:33;;;;;;;7.35;2.20;;;;;;;35.67;24.75;95280.47;5010094;28;20179;-82
2022/06/30 06:41:58;;;;;;;3.15;2.05;;;;;;;36.97;23.55;95286.03;5010640;28;20182;-84
2022/06/30 06:44:23;;;;;;;4.28;2.45;;;;;;;36.93;24.08;95289.69;5010440;28;20187;-82
2022/06/30 06:46:48;;;;;;;4.93;2.20;;;;;;;35.69;26.01;95277.44;4994090;28;20673;-83
2022/06/30 06:49:14;;;;;;;6.43;3.15;;;;;;;37.70;23.61;95285.97;4994117;28;20241;-83
2022/06/30 06:51:39;;;;;;;5.13;2.90;;;;;;;35.09;26.80;95272.59;5010814;28;20215;-82
2022/06/30 06:54:04;;;;;;;4.63;2.80;;;;;;;36.44;24.84;95280.97;4993436;28;20298;-83
2022/06/30 06:56:30;;;;;;;4.45;2.45;;;;;;;37.01;23.38;95280.75;5011658;28;20187;-82
2022/06/30 06:58:55;;;;;;;4.10;2.17;;;;;;;36.29;24.74;95287.59;5010500;28;20194;-83
2022/06/30 07:01:21;;;;;;;3.38;2.50;;;;;;;36.28;24.68;95280.63;4993544;28;20679;-82
2022/06/30 07:03:46;;;;;;;5.18;2.60;;;;;;;36.62;24.17;95285.25;5011024;28;20674;-82
2022/06/30 07:06:11;;;;;;;3.95;2.20;;;;;;;35.90;25.12;95283.13;5013146;28;20193;-81
2022/06/30 07:08:37;;;;;;;6.10;2.80;;;;;;;35.58;25.71;95276.94;5012828;28;20175;-82
2022/06/30 07:11:03;;;;;;;6.13;2.97;;;;;;;36.12;25.00;95280.28;4998144;28;20198;-83
2022/06/30 07:13:29;;;;;;;4.35;2.50;;;;;;;35.54;25.34;95278.69;5036985;28;20190;-85
2022/06/30 07:15:55;;;;;;;5.60;2.97;;;;;;;35.48;26.10;95280.72;5036889;28;20171;-83
2022/06/30 07:18:20;;;;;;;4.22;2.78;;;;;;;35.35;26.75;95283.53;5036696;28;20235;-82
2022/06/30 07:20:46;;;;;;;3.95;2.78;;;;;;;36.73;24.96;95277.59;5020788;28;20671;-84
2022/06/30 07:23:11;;;;;;;4.72;2.92;;;;;;;36.45;25.56;95271.75;5015560;28;20183;-84
2022/06/30 07:25:37;;;;;;;4.05;3.10;;;;;;;34.38;28.78;95266.19;5015251;28;20188;-84
2022/06/30 07:28:03;;;;;;;4.55;3.20;;;;;;;34.78;28.19;95264.44;5015630;28;20174;-82
2022/06/30 07:30:28;;;;;;;5.28;3.17;;;;;;;35.23;27.47;95269.78;5015337;28;20381;-84
2022/06/30 07:32:54;;;;;;;6.35;3.30;;;;;;;34.84;27.88;95272.09;5015710;28;20213;-83
2022/06/30 07:35:19;;;;;;;11.43;4.10;;;;;;;34.06;29.41;95268.78;4997562;28;20234;-82
2022/06/30 07:37:44;;;;;;;4.22;3.80;;;;;;;34.76;28.09;95267.44;5015458;28;20186;-84
2022/06/30 07:40:11;;;;;;;5.43;3.53;;;;;;;34.37;29.10;95262.72;5014317;28;20203;-81
2022/06/30 07:42:37;;;;;;;5.70;3.80;;;;;;;33.08;30.59;95254.00;4999047;28;20555;-83
2022/06/30 07:45:03;;;;;;;4.63;3.30;;;;;;;33.20;30.46;95257.00;5030217;28;20207;-84
2022/06/30 07:47:28;;;;;;;5.88;3.70;;;;;;;32.78;31.09;95255.28;5014603;28;20211;-82
2022/06/30 07:49:53;;;;;;;3.55;3.28;;;;;;;33.21;30.82;95259.38;4998084;28;20230;-83
2022/06/30 07:52:19;;;;;;;5.25;3.35;;;;;;;33.43;30.27;95261.44;5014331;28;20675;-83
2022/06/30 07:54:45;;;;;;;5.93;3.83;;;;;;;32.61;32.06;95262.03;5013600;28;20183;-82
2022/06/30 07:57:10;;;;;;;3.63;3.30;;;;;;;33.12;30.45;95260.38;5013818;28;20203;-83
2022/06/30 07:59:35;;;;;;;5.88;3.72;;;;;;;32.25;31.95;95259.06;5013951;28;20328;-81
2022/06/30 08:02:00;;;;;;;5.30;3.72;;;;;;;32.43;32.72;95260.19;5014228;28;20576;-82
2022/06/30 08:04:26;;;;;;;4.43;3.70;;;;;;;32.13;33.35;95262.19;5014143;28;20195;-82
2022/06/30 08:06:51;;;;;;;5.47;3.90;;;;;;;32.56;31.59;95258.63;5013678;28;20179;-82
2022/06/30 08:09:17;;;;;;;6.80;3.85;;;;;;;32.51;32.75;95256.81;5013427;28;20749;-83
2022/06/30 08:11:42;;;;;;;3.83;3.53;;;;;;;32.36;33.51;95260.53;5014165;28;20274;-82
2022/06/30 08:14:07;;;;;;;5.30;3.65;;;;;;;31.88;33.88;95253.66;4997005;28;20259;-83
2022/06/30 08:16:33;;;;;;;7.10;4.00;;;;;;;31.98;34.76;95248.97;5014050;28;20286;-83
2022/06/30 08:18:58;;;;;;;8.60;3.65;;;;;;;32.64;32.40;95260.63;5013388;28;20275;-84
2022/06/30 08:21:24;;;;;;;5.97;3.60;;;;;;;32.18;33.68;95255.16;5013319;28;20199;-82
2022/06/30 08:23:49;;;;;;;4.53;3.20;;;;;;;31.37;33.49;95243.56;4996673;28;20186;-84
2022/06/30 08:26:14;;;;;;;5.38;3.78;;;;;;;30.67;35.53;95247.44;5013811;28;20654;-81
2022/06/30 08:28:39;;;;;;;6.85;3.75;;;;;;;31.10;34.58;95244.88;5012804;28;20188;-81
2022/06/30 08:31:05;;;;;;;4.90;3.65;;;;;;;31.36;33.69;95247.28;5013569;28;20207;-82
2022/06/30 08:33:30;;;;;;;3.97;2.42;;;;;;;31.65;32.65;95244.56;5013200;28;20209;-82
2022/06/30 08:35:55;;;;;;;7.05;3.33;;;;;;;30.97;33.38;95245.53;5010704;28;20314;-82
2022/06/30 08:38:23;;;;;;;3.83;3.00;;;;;;;30.88;34.04;95244.56;5013404;28;20179;-83
2022/06/30 08:43:34;;;;;;;6.30;3.75;;;;;;;29.97;36.44;95236.09;5013448;28;20190;-85
2022/06/30 08:46:01;;;;;;;7.03;3.55;;;;;;;29.77;35.99;95237.03;4995056;28;20191;-82
2022/06/30 08:48:27;;;;;;;7.20;3.78;;;;;;;29.45;37.73;95236.59;4996707;28;20203;-81
2022/06/30 08:50:58;;;;;;;4.60;3.47;;;;;;;29.42;37.00;95224.59;5014108;28;20205;-83
2022/06/30 08:53:24;;;;;;;4.00;3.35;;;;;;;29.74;36.19;95234.09;4996459;28;20194;-82
2022/06/30 08:55:50;;;;;;;3.80;3.05;;;;;;;29.88;36.83;95235.09;4995821;28;20195;-81
2022/06/30 08:58:19;;;;;;;6.55;3.67;;;;;;;30.16;35.98;95225.56;5012137;28;20234;-81
2022/06/30 09:00:44;;;;;;;3.92;2.65;;;;;;;30.00;33.95;95232.88;5011876;28;20226;-83
2022/06/30 09:03:10;;;;;;;5.70;2.38;;;;;;;30.22;31.30;95231.69;4996157;28;20266;-84
2022/06/30 09:05:36;;;;;;;6.82;2.28;;;;;;;30.32;32.40;95236.97;5027677;28;20532;-81
2022/06/30 09:08:01;;;;;;;5.85;2.97;;;;;;;29.72;33.11;95229.00;5012056;28;20216;-81
2022/06/30 09:10:28;;;;;;;3.97;2.78;;;;;;;29.95;34.08;95226.72;5012395;28;20218;-81
2022/06/30 09:13:04;;;;;;;5.63;2.90;;;;;;;30.57;32.72;95222.56;5010761;28;20214;-84
2022/06/30 09:15:30;;;;;;;4.38;2.83;;;;;;;29.95;33.13;95222.22;5013842;28;20251;-82
2022/06/30 09:17:56;;;;;;;5.07;2.83;;;;;;;29.71;33.74;95231.97;5014114;28;20218;-84
2022/06/30 09:20:36;;;;;;;4.45;3.42;;;;;;;29.03;34.03;95211.88;5012913;28;20195;-83
2022/06/30 09:23:18;;;;;;;7.13;2.70;;;;;;;28.99;35.27;95213.50;5013235;28;20666;-83
2022/06/30 09:25:46;;;;;;;3.83;2.95;;;;;;;29.44;34.90;95225.09;5013170;28;20171;-82
2022/06/30 09:28:11;;;;;;;4.75;3.10;;;;;;;29.24;32.78;95215.28;4996598;28;20194;-83
2022/06/30 09:30:37;;;;;;;5.65;3.10;;;;;;;29.64;32.79;95220.75;5014415;28;20210;-82
2022/06/30 09:33:06;;;;;;;5.00;2.55;;;;;;;28.88;33.79;95217.22;4997682;28;20210;-83
2022/06/30 09:35:32;;;;;;;4.00;2.85;;;;;;;29.17;33.16;95213.97;5013935;28;20283;-83
2022/06/30 09:38:09;;;;;;;4.20;3.17;;;;;;;29.25;34.92;95213.41;4996897;28;20214;-83
2022/06/30 09:43:30;;;;;;;4.35;3.20;;;;;;;29.78;34.78;95217.22;5011381;28;20241;-83
2022/06/30 09:45:55;;;;;;;5.47;3.33;;;;;;;29.46;35.22;95211.44;5008319;28;20515;-83
2022/06/30 09:48:26;;;;;;;3.90;2.88;;;;;;;29.11;34.34;95210.50;5009985;28;20195;-83
2022/06/30 09:50:58;;;;;;;4.22;2.83;;;;;;;29.39;34.08;95209.06;4993373;28;20211;-83
2022/06/30 09:53:24;;;;;;;4.68;3.22;;;;;;;29.89;32.80;95210.72;5009804;28;20191;-84
2022/06/30 09:55:49;;;;;;;6.03;2.85;;;;;;;29.79;33.64;95210.00;5009064;28;20238;-83
2022/06/30 09:58:17;;;;;;;6.32;3.00;;;;;;;29.49;35.76;95203.69;5009899;28;20202;-83
2022/06/30 10:00:51;;;;;;;7.35;3.42;;;;;;;29.74;32.52;95207.31;5009878;28;20649;-82
2022/06/30 10:03:18;;;;;;;4.22;2.85;;;;;;;29.88;33.37;95201.09;4994532;28;20175;-84
2022/06/30 10:05:45;;;;;;;3.83;2.60;;;;;;;29.33;33.27;95200.28;4993320;28;20190;-83
2022/06/30 10:08:12;;;;;;;6.65;3.40;;;;;;;29.20;34.31;95200.06;5010210;28;20190;-83
2022/06/30 10:10:40;;;;;;;4.28;2.70;;;;;;;30.11;32.35;95199.63;4993565;28;20215;-82
2022/06/30 10:13:06;;;;;;;4.47;2.78;;;;;;;30.21;31.62;95195.25;5010224;28;20273;-83
2022/06/30 10:15:34;;;;;;;3.65;2.70;;;;;;;30.01;32.07;95193.50;5009475;28;20222;-82
2022/06/30 10:17:59;;;;;;;4.95;2.67;;;;;;;30.40;32.24;95205.03;5009571;28;20718;-81
2022/06/30 10:20:26;;;;;;;4.45;2.75;;;;;;;29.76;33.41;95186.44;4993570;28;20294;-82
2022/06/30 10:22:52;;;;;;;4.53;2.97;;;;;;;29.70;34.14;95180.34;5010360;28;20179;-82
2022/06/30 10:25:17;;;;;;;4.30;3.15;;;;;;;29.85;32.29;95185.56;5010782;28;20187;-82
2022/06/30 10:27:45;;;;;;;5.13;2.80;;;;;;;29.70;32.08;95174.19;4994739;28;20215;-83
2022/06/30 10:30:13;;;;;;;4.65;3.50;;;;;;;30.34;32.28;95174.00;4997169;28;20215;-83
2022/06/30 10:32:47;;;;;;;4.13;2.72;;;;;;;30.10;30.74;95179.28;5011180;28;20718;-82
2022/06/30 10:35:21;;;;;;;5.00;3.03;;;;;;;30.27;32.70;95178.88;4995549;28;20239;-82
2022/06/30 10:37:54;;;;;;;3.83;3.00;;;;;;;30.67;31.34;95180.44;5010622;28;20195;-83
2022/06/30 10:40:43;;;;;;;4.43;3.00;;;;;;;30.78;32.26;95177.66;5015000;28;20290;-82
2022/06/30 10:43:09;;;;;;;7.20;3.45;;;;;;;30.75;31.86;95181.72;5000864;28;20179;-82
2022/06/30 10:45:35;;;;;;;4.30;2.90;;;;;;;30.11;32.78;95191.56;4997687;28;20190;-82
2022/06/30 10:48:06;;;;;;;5.07;2.92;;;;;;;30.42;33.27;95176.09;4998106;28;20190;-83
2022/06/30 10:50:39;;;;;;;3.78;2.58;;;;;;;30.92;31.63;95174.03;5014834;28;20679;-83
2022/06/30 10:53:09;;;;;;;2.58;2.33;;;;;;;31.04;30.97;95178.97;5014566;28;20186;-81
2022/06/30 10:55:49;;;;;;;4.07;2.70;;;;;;;31.06;31.26;95184.06;5013670;28;20179;-81
2022/06/30 10:58:15;;;;;;;4.47;2.88;;;;;;;30.82;30.98;95186.72;5014802;28;20190;-83
2022/06/30 11:00:41;;;;;;;4.85;3.00;;;;;;;30.91;31.55;95188.50;4998377;28;20207;-82
2022/06/30 11:03:07;;;;;;;5.38;3.50;;;;;;;30.79;29.96;95187.28;4999281;28;20294;-82
2022/06/30 11:05:32;;;;;;;3.67;2.72;;;;;;;30.40;31.63;95188.16;4997336;28;20178;-82
2022/06/30 11:08:36;;;;;;;3.97;2.80;;;;;;;30.53;31.16;95179.47;5014364;28;20183;-82
2022/06/30 11:11:19;;;;;;;5.63;2.50;;;;;;;30.54;30.08;95177.56;5014967;28;20230;-82
2022/06/30 11:13:45;;;;;;;3.20;2.90;;;;;;;30.39;31.30;95170.47;5015139;28;20222;-81
2022/06/30 11:16:13;;;;;;;4.65;3.20;;;;;;;31.14;30.62;95173.50;4997685;28;20218;-83
2022/06/30 11:18:38;;;;;;;4.93;2.65;;;;;;;31.33;30.48;95170.09;5014346;28;20270;-83
2022/06/30 11:21:04;;;;;;;5.25;2.90;;;;;;;30.50;30.78;95176.56;5016500;28;20215;-81
2022/06/30 11:23:37;;;;;;;5.35;2.90;;;;;;;29.42;32.56;95168.41;5038431;28;20171;-82
2022/06/30 11:28:50;;;;;;;4.60;2.80;;;;;;;28.97;33.35;95158.69;5038545;28;20298;-81
2022/06/30 11:31:31;;;;;;;6.20;3.38;;;;;;;29.03;34.29;95152.25;5038722;28;20211;-83
2022/06/30 11:34:05;;;;;;;6.53;3.05;;;;;;;29.30;33.35;95154.56;5020825;28;20180;-82
2022/06/30 11:36:32;;;;;;;6.43;3.17;;;;;;;29.64;31.53;95148.53;5005315;28;20563;-82
2022/06/30 11:38:59;;;;;;;6.03;2.70;;;;;;;30.28;30.12;95148.34;4999353;28;20195;-82
2022/06/30 11:44:11;;;;;;;3.35;2.60;;;;;;;30.75;30.24;95141.50;5013214;28;20241;-83
2022/06/30 11:46:59;;;;;;;5.05;2.70;;;;;;;30.95;29.63;95151.19;4996821;28;20183;-83
2022/06/30 11:49:38;;;;;;;4.47;2.70;;;;;;;31.08;29.59;95147.81;4999665;28;20733;-83
2022/06/30 11:52:13;;;;;;;4.30;2.60;;;;;;;30.81;31.67;95147.59;4996708;28;20582;-83